sensor_id;sensor_type;location;lat;lon;timestamp;P1;durP1;ratioP1;P2;durP2;ratioP2
76098;SDS011;64828;49.956;8.636;2023-04-07T00:00:08;17.85;;;12.07;;
76098;SDS011;64828;49.956;8.636;2023-04-07T00:00:24;19.73;;;12.02;;
76098;SDS011;64828;49.956;8.636;2023-04-07T00:00:40;20.60;;;11.70;;
76098;SDS011;64828;49.956;8.636;2023-04-07T00:00:56;19.53;;;11.50;;
76098;SDS011;64828;49.956;8.636;2023-04-07T00:01:11;19.83;;;11.93;;
76098;SDS011;64828;49.956;8.636;2023-04-07T00:01:27;20.20;;;12.30;;
76098;SDS011;64828;49.956;8.636;2023-04-07T00:01:43;20.17;;;12.60;;
76098;SDS011;64828;49.956;8.636;2023-04-07T00:01:58;19.45;;;12.40;;
76098;SDS011;64828;49.956;8.636;2023-04-07T00:02:14;20.20;;;12.30;;
76098;SDS011;64828;49.956;8.636;2023-04-07T00:02:30;21.33;;;12.43;;
76098;SDS011;64828;49.956;8.636;2023-04-07T00:02:46;21.35;;;12.40;;
76098;SDS011;64828;49.956;8.636;2023-04-07T00:03:02;20.20;;;11.95;;
76098;SDS011;64828;49.956;8.636;2023-04-07T00:03:20;20.48;;;11.93;;
76098;SDS011;64828;49.956;8.636;2023-04-07T00:03:37;20.70;;;12.13;;
76098;SDS011;64828;49.956;8.636;2023-04-07T00:03:54;18.50;;;11.73;;
76098;SDS011;64828;49.956;8.636;2023-04-07T00:04:10;17.73;;;11.37;;
76098;SDS011;64828;49.956;8.636;2023-04-07T00:04:25;18.63;;;11.88;;
76098;SDS011;64828;49.956;8.636;2023-04-07T00:04:41;18.05;;;11.80;;
76098;SDS011;64828;49.956;8.636;2023-04-07T00:04:57;18.90;;;12.00;;
76098;SDS011;64828;49.956;8.636;2023-04-07T00:05:13;18.70;;;11.63;;
76098;SDS011;64828;49.956;8.636;2023-04-07T00:05:29;17.95;;;11.25;;
76098;SDS011;64828;49.956;8.636;2023-04-07T00:05:45;18.33;;;11.90;;
76098;SDS011;64828;49.956;8.636;2023-04-07T00:06:00;17.83;;;11.90;;
76098;SDS011;64828;49.956;8.636;2023-04-07T00:06:16;18.17;;;11.50;;
76098;SDS011;64828;49.956;8.636;2023-04-07T00:06:31;20.25;;;12.10;;
76098;SDS011;64828;49.956;8.636;2023-04-07T00:06:47;20.17;;;12.30;;
76098;SDS011;64828;49.956;8.636;2023-04-07T00:07:03;18.08;;;11.63;;
76098;SDS011;64828;49.956;8.636;2023-04-07T00:07:18;17.73;;;11.50;;
76098;SDS011;64828;49.956;8.636;2023-04-07T00:07:34;18.73;;;11.77;;
76098;SDS011;64828;49.956;8.636;2023-04-07T00:07:49;19.85;;;12.38;;
76098;SDS011;64828;49.956;8.636;2023-04-07T00:08:05;18.83;;;12.03;;
76098;SDS011;64828;49.956;8.636;2023-04-07T00:08:21;19.17;;;12.18;;
76098;SDS011;64828;49.956;8.636;2023-04-07T00:08:37;19.98;;;12.18;;
76098;SDS011;64828;49.956;8.636;2023-04-07T00:08:53;20.33;;;12.15;;
76098;SDS011;64828;49.956;8.636;2023-04-07T00:09:09;19.73;;;12.40;;
76098;SDS011;64828;49.956;8.636;2023-04-07T00:09:25;19.45;;;12.45;;
76098;SDS011;64828;49.956;8.636;2023-04-07T00:09:40;19.52;;;11.93;;
76098;SDS011;64828;49.956;8.636;2023-04-07T00:09:56;18.00;;;11.30;;
76098;SDS011;64828;49.956;8.636;2023-04-07T00:10:11;16.73;;;11.38;;
76098;SDS011;64828;49.956;8.636;2023-04-07T00:10:27;18.00;;;11.67;;
76098;SDS011;64828;49.956;8.636;2023-04-07T00:10:43;18.13;;;11.70;;
76098;SDS011;64828;49.956;8.636;2023-04-07T00:10:58;18.30;;;11.77;;
76098;SDS011;64828;49.956;8.636;2023-04-07T00:11:14;19.77;;;12.30;;
76098;SDS011;64828;49.956;8.636;2023-04-07T00:11:29;19.55;;;12.30;;
76098;SDS011;64828;49.956;8.636;2023-04-07T00:11:45;19.13;;;12.30;;
76098;SDS011;64828;49.956;8.636;2023-04-07T00:12:02;19.27;;;12.00;;
76098;SDS011;64828;49.956;8.636;2023-04-07T00:12:18;19.13;;;11.95;;
76098;SDS011;64828;49.956;8.636;2023-04-07T00:12:34;18.75;;;11.73;;
76098;SDS011;64828;49.956;8.636;2023-04-07T00:12:50;19.25;;;12.25;;
76098;SDS011;64828;49.956;8.636;2023-04-07T00:13:06;19.63;;;12.68;;
76098;SDS011;64828;49.956;8.636;2023-04-07T00:13:21;19.52;;;12.27;;
76098;SDS011;64828;49.956;8.636;2023-04-07T00:13:37;19.37;;;12.43;;
76098;SDS011;64828;49.956;8.636;2023-04-07T00:13:53;19.40;;;12.60;;
76098;SDS011;64828;49.956;8.636;2023-04-07T00:14:08;19.50;;;12.40;;
76098;SDS011;64828;49.956;8.636;2023-04-07T00:14:24;20.38;;;12.23;;
76098;SDS011;64828;49.956;8.636;2023-04-07T00:14:39;19.90;;;12.00;;
76098;SDS011;64828;49.956;8.636;2023-04-07T00:14:55;17.90;;;11.87;;
76098;SDS011;64828;49.956;8.636;2023-04-07T00:15:11;18.30;;;12.13;;
76098;SDS011;64828;49.956;8.636;2023-04-07T00:15:26;18.53;;;12.20;;
76098;SDS011;64828;49.956;8.636;2023-04-07T00:15:42;18.60;;;12.13;;
76098;SDS011;64828;49.956;8.636;2023-04-07T00:15:57;18.10;;;12.05;;
76098;SDS011;64828;49.956;8.636;2023-04-07T00:16:13;18.60;;;12.23;;
76098;SDS011;64828;49.956;8.636;2023-04-07T00:16:29;18.20;;;12.10;;
76098;SDS011;64828;49.956;8.636;2023-04-07T00:16:44;17.77;;;11.53;;
76098;SDS011;64828;49.956;8.636;2023-04-07T00:17:00;18.33;;;11.73;;
76098;SDS011;64828;49.956;8.636;2023-04-07T00:17:15;17.50;;;11.70;;
76098;SDS011;64828;49.956;8.636;2023-04-07T00:17:31;16.98;;;11.15;;
76098;SDS011;64828;49.956;8.636;2023-04-07T00:17:46;17.73;;;11.13;;
76098;SDS011;64828;49.956;8.636;2023-04-07T00:18:03;18.42;;;11.38;;
76098;SDS011;64828;49.956;8.636;2023-04-07T00:18:18;18.70;;;11.50;;
76098;SDS011;64828;49.956;8.636;2023-04-07T00:18:34;19.20;;;12.05;;
76098;SDS011;64828;49.956;8.636;2023-04-07T00:18:49;17.80;;;11.40;;
76098;SDS011;64828;49.956;8.636;2023-04-07T00:19:05;18.13;;;11.07;;
76098;SDS011;64828;49.956;8.636;2023-04-07T00:19:21;20.00;;;11.85;;
76098;SDS011;64828;49.956;8.636;2023-04-07T00:19:36;19.37;;;11.87;;
76098;SDS011;64828;49.956;8.636;2023-04-07T00:19:52;18.85;;;11.40;;
76098;SDS011;64828;49.956;8.636;2023-04-07T00:20:07;19.20;;;11.45;;
76098;SDS011;64828;49.956;8.636;2023-04-07T00:20:23;19.25;;;11.70;;
76098;SDS011;64828;49.956;8.636;2023-04-07T00:20:39;18.30;;;11.60;;
76098;SDS011;64828;49.956;8.636;2023-04-07T00:20:55;18.88;;;11.60;;
76098;SDS011;64828;49.956;8.636;2023-04-07T00:21:10;19.02;;;11.85;;
76098;SDS011;64828;49.956;8.636;2023-04-07T00:21:26;17.80;;;11.97;;
76098;SDS011;64828;49.956;8.636;2023-04-07T00:21:42;17.42;;;11.95;;
76098;SDS011;64828;49.956;8.636;2023-04-07T00:21:57;17.17;;;11.53;;
76098;SDS011;64828;49.956;8.636;2023-04-07T00:22:13;18.00;;;11.25;;
76098;SDS011;64828;49.956;8.636;2023-04-07T00:22:28;19.70;;;11.40;;
76098;SDS011;64828;49.956;8.636;2023-04-07T00:22:44;20.17;;;11.73;;
76098;SDS011;64828;49.956;8.636;2023-04-07T00:22:59;19.10;;;11.73;;
76098;SDS011;64828;49.956;8.636;2023-04-07T00:23:15;19.17;;;12.07;;
76098;SDS011;64828;49.956;8.636;2023-04-07T00:23:31;20.00;;;12.77;;
76098;SDS011;64828;49.956;8.636;2023-04-07T00:23:46;20.17;;;12.77;;
76098;SDS011;64828;49.956;8.636;2023-04-07T00:24:02;19.27;;;12.18;;
76098;SDS011;64828;49.956;8.636;2023-04-07T00:24:18;18.70;;;11.85;;
76098;SDS011;64828;49.956;8.636;2023-04-07T00:24:33;19.43;;;11.97;;
76098;SDS011;64828;49.956;8.636;2023-04-07T00:24:49;20.63;;;12.07;;
76098;SDS011;64828;49.956;8.636;2023-04-07T00:25:05;19.67;;;11.90;;
76098;SDS011;64828;49.956;8.636;2023-04-07T00:25:21;19.92;;;11.75;;
76098;SDS011;64828;49.956;8.636;2023-04-07T00:25:37;20.58;;;11.93;;
76098;SDS011;64828;49.956;8.636;2023-04-07T00:25:52;18.80;;;11.83;;
76098;SDS011;64828;49.956;8.636;2023-04-07T00:26:08;18.35;;;11.95;;
76098;SDS011;64828;49.956;8.636;2023-04-07T00:26:24;18.42;;;12.07;;
76098;SDS011;64828;49.956;8.636;2023-04-07T00:26:45;20.15;;;11.95;;
76098;SDS011;64828;49.956;8.636;2023-04-07T00:27:00;19.57;;;11.83;;
76098;SDS011;64828;49.956;8.636;2023-04-07T00:27:17;18.77;;;11.88;;
76098;SDS011;64828;49.956;8.636;2023-04-07T00:27:33;18.90;;;12.07;;
76098;SDS011;64828;49.956;8.636;2023-04-07T00:27:48;19.83;;;12.27;;
76098;SDS011;64828;49.956;8.636;2023-04-07T00:28:04;20.25;;;12.15;;
76098;SDS011;64828;49.956;8.636;2023-04-07T00:28:19;20.63;;;12.57;;
76098;SDS011;64828;49.956;8.636;2023-04-07T00:28:36;20.75;;;12.50;;
76098;SDS011;64828;49.956;8.636;2023-04-07T00:28:52;19.38;;;12.40;;
76098;SDS011;64828;49.956;8.636;2023-04-07T00:29:07;19.27;;;12.57;;
76098;SDS011;64828;49.956;8.636;2023-04-07T00:29:23;17.35;;;11.85;;
76098;SDS011;64828;49.956;8.636;2023-04-07T00:29:38;17.90;;;12.10;;
76098;SDS011;64828;49.956;8.636;2023-04-07T00:29:54;19.42;;;12.45;;
76098;SDS011;64828;49.956;8.636;2023-04-07T00:30:10;18.57;;;12.27;;
76098;SDS011;64828;49.956;8.636;2023-04-07T00:30:25;17.90;;;12.15;;
76098;SDS011;64828;49.956;8.636;2023-04-07T00:30:41;17.95;;;11.93;;
76098;SDS011;64828;49.956;8.636;2023-04-07T00:30:56;18.50;;;11.70;;
76098;SDS011;64828;49.956;8.636;2023-04-07T00:31:12;17.58;;;11.23;;
76098;SDS011;64828;49.956;8.636;2023-04-07T00:31:28;16.50;;;11.07;;
76098;SDS011;64828;49.956;8.636;2023-04-07T00:31:44;16.83;;;11.02;;
76098;SDS011;64828;49.956;8.636;2023-04-07T00:31:59;17.60;;;11.13;;
76098;SDS011;64828;49.956;8.636;2023-04-07T00:32:15;18.08;;;11.00;;
76098;SDS011;64828;49.956;8.636;2023-04-07T00:32:31;17.63;;;11.07;;
76098;SDS011;64828;49.956;8.636;2023-04-07T00:32:46;17.53;;;11.20;;
76098;SDS011;64828;49.956;8.636;2023-04-07T00:33:02;16.63;;;10.60;;
76098;SDS011;64828;49.956;8.636;2023-04-07T00:33:18;15.25;;;10.18;;
76098;SDS011;64828;49.956;8.636;2023-04-07T00:33:33;15.37;;;10.23;;
76098;SDS011;64828;49.956;8.636;2023-04-07T00:33:49;16.88;;;11.10;;
76098;SDS011;64828;49.956;8.636;2023-04-07T00:34:05;17.58;;;11.63;;
76098;SDS011;64828;49.956;8.636;2023-04-07T00:34:20;16.93;;;11.53;;
76098;SDS011;64828;49.956;8.636;2023-04-07T00:34:36;16.67;;;11.15;;
76098;SDS011;64828;49.956;8.636;2023-04-07T00:34:51;17.10;;;11.10;;
76098;SDS011;64828;49.956;8.636;2023-04-07T00:35:07;17.15;;;11.07;;
76098;SDS011;64828;49.956;8.636;2023-04-07T00:35:23;16.88;;;11.07;;
76098;SDS011;64828;49.956;8.636;2023-04-07T00:35:39;18.20;;;11.77;;
76098;SDS011;64828;49.956;8.636;2023-04-07T00:35:54;18.37;;;11.90;;
76098;SDS011;64828;49.956;8.636;2023-04-07T00:36:12;18.15;;;11.82;;
76098;SDS011;64828;49.956;8.636;2023-04-07T00:36:28;17.87;;;11.57;;
76098;SDS011;64828;49.956;8.636;2023-04-07T00:36:43;17.45;;;10.77;;
76098;SDS011;64828;49.956;8.636;2023-04-07T00:37:05;17.40;;;11.05;;
76098;SDS011;64828;49.956;8.636;2023-04-07T00:37:21;17.00;;;11.40;;
76098;SDS011;64828;49.956;8.636;2023-04-07T00:37:37;18.48;;;11.77;;
76098;SDS011;64828;49.956;8.636;2023-04-07T00:37:53;18.98;;;11.57;;
76098;SDS011;64828;49.956;8.636;2023-04-07T00:38:08;18.87;;;12.00;;
76098;SDS011;64828;49.956;8.636;2023-04-07T00:38:24;18.48;;;12.10;;
76098;SDS011;64828;49.956;8.636;2023-04-07T00:38:40;17.83;;;11.67;;
76098;SDS011;64828;49.956;8.636;2023-04-07T00:38:55;18.42;;;11.90;;
76098;SDS011;64828;49.956;8.636;2023-04-07T00:39:11;17.98;;;11.48;;
76098;SDS011;64828;49.956;8.636;2023-04-07T00:39:27;17.43;;;11.60;;
76098;SDS011;64828;49.956;8.636;2023-04-07T00:39:42;18.13;;;11.95;;
76098;SDS011;64828;49.956;8.636;2023-04-07T00:39:58;17.77;;;11.63;;
76098;SDS011;64828;49.956;8.636;2023-04-07T00:40:13;17.70;;;11.87;;
76098;SDS011;64828;49.956;8.636;2023-04-07T00:40:29;18.08;;;12.10;;
76098;SDS011;64828;49.956;8.636;2023-04-07T00:40:45;19.13;;;12.20;;
76098;SDS011;64828;49.956;8.636;2023-04-07T00:41:00;19.00;;;12.07;;
76098;SDS011;64828;49.956;8.636;2023-04-07T00:41:16;17.77;;;11.63;;
76098;SDS011;64828;49.956;8.636;2023-04-07T00:41:33;18.90;;;11.53;;
76098;SDS011;64828;49.956;8.636;2023-04-07T00:41:49;18.20;;;11.57;;
76098;SDS011;64828;49.956;8.636;2023-04-07T00:42:05;18.00;;;11.70;;
76098;SDS011;64828;49.956;8.636;2023-04-07T00:42:21;18.88;;;11.70;;
76098;SDS011;64828;49.956;8.636;2023-04-07T00:42:37;17.42;;;11.40;;
76098;SDS011;64828;49.956;8.636;2023-04-07T00:42:53;18.70;;;11.60;;
76098;SDS011;64828;49.956;8.636;2023-04-07T00:43:08;19.17;;;11.77;;
76098;SDS011;64828;49.956;8.636;2023-04-07T00:43:24;18.40;;;11.70;;
76098;SDS011;64828;49.956;8.636;2023-04-07T00:43:40;18.27;;;11.87;;
76098;SDS011;64828;49.956;8.636;2023-04-07T00:43:55;18.47;;;12.00;;
76098;SDS011;64828;49.956;8.636;2023-04-07T00:44:11;19.27;;;12.35;;
76098;SDS011;64828;49.956;8.636;2023-04-07T00:44:28;18.55;;;12.18;;
76098;SDS011;64828;49.956;8.636;2023-04-07T00:44:43;18.90;;;12.32;;
76098;SDS011;64828;49.956;8.636;2023-04-07T00:44:59;18.00;;;12.10;;
76098;SDS011;64828;49.956;8.636;2023-04-07T00:45:15;18.30;;;12.07;;
76098;SDS011;64828;49.956;8.636;2023-04-07T00:45:31;19.27;;;12.20;;
76098;SDS011;64828;49.956;8.636;2023-04-07T00:45:46;19.83;;;12.23;;
76098;SDS011;64828;49.956;8.636;2023-04-07T00:46:02;20.00;;;12.23;;
76098;SDS011;64828;49.956;8.636;2023-04-07T00:46:18;19.53;;;11.73;;
76098;SDS011;64828;49.956;8.636;2023-04-07T00:46:37;19.33;;;12.07;;
76098;SDS011;64828;49.956;8.636;2023-04-07T00:46:53;19.08;;;12.10;;
76098;SDS011;64828;49.956;8.636;2023-04-07T00:47:09;20.88;;;11.95;;
76098;SDS011;64828;49.956;8.636;2023-04-07T00:47:25;18.90;;;11.75;;
76098;SDS011;64828;49.956;8.636;2023-04-07T00:47:41;16.83;;;11.47;;
76098;SDS011;64828;49.956;8.636;2023-04-07T00:47:56;18.13;;;11.48;;
76098;SDS011;64828;49.956;8.636;2023-04-07T00:48:13;18.70;;;11.88;;
76098;SDS011;64828;49.956;8.636;2023-04-07T00:48:29;19.20;;;11.88;;
76098;SDS011;64828;49.956;8.636;2023-04-07T00:48:45;21.02;;;11.90;;
76098;SDS011;64828;49.956;8.636;2023-04-07T00:49:01;20.47;;;11.63;;
76098;SDS011;64828;49.956;8.636;2023-04-07T00:49:16;19.45;;;11.68;;
76098;SDS011;64828;49.956;8.636;2023-04-07T00:49:32;19.10;;;11.67;;
76098;SDS011;64828;49.956;8.636;2023-04-07T00:49:48;18.13;;;11.43;;
76098;SDS011;64828;49.956;8.636;2023-04-07T00:50:03;17.90;;;11.77;;
76098;SDS011;64828;49.956;8.636;2023-04-07T00:50:19;18.45;;;11.70;;
76098;SDS011;64828;49.956;8.636;2023-04-07T00:50:35;18.10;;;11.43;;
76098;SDS011;64828;49.956;8.636;2023-04-07T00:50:51;17.93;;;11.37;;
76098;SDS011;64828;49.956;8.636;2023-04-07T00:51:06;18.38;;;11.68;;
76098;SDS011;64828;49.956;8.636;2023-04-07T00:51:22;19.42;;;11.82;;
76098;SDS011;64828;49.956;8.636;2023-04-07T00:51:38;18.70;;;11.67;;
76098;SDS011;64828;49.956;8.636;2023-04-07T00:51:54;17.75;;;11.82;;
76098;SDS011;64828;49.956;8.636;2023-04-07T00:52:11;18.67;;;12.30;;
76098;SDS011;64828;49.956;8.636;2023-04-07T00:52:28;18.63;;;12.02;;
76098;SDS011;64828;49.956;8.636;2023-04-07T00:52:44;18.00;;;11.77;;
76098;SDS011;64828;49.956;8.636;2023-04-07T00:53:00;19.10;;;11.50;;
76098;SDS011;64828;49.956;8.636;2023-04-07T00:53:16;20.52;;;11.70;;
76098;SDS011;64828;49.956;8.636;2023-04-07T00:53:33;17.85;;;11.52;;
76098;SDS011;64828;49.956;8.636;2023-04-07T00:53:49;17.23;;;11.47;;
76098;SDS011;64828;49.956;8.636;2023-04-07T00:54:04;17.13;;;11.63;;
76098;SDS011;64828;49.956;8.636;2023-04-07T00:54:20;18.52;;;11.98;;
76098;SDS011;64828;49.956;8.636;2023-04-07T00:54:38;20.42;;;12.20;;
76098;SDS011;64828;49.956;8.636;2023-04-07T00:54:56;19.70;;;12.27;;
76098;SDS011;64828;49.956;8.636;2023-04-07T00:55:13;17.17;;;11.48;;
76098;SDS011;64828;49.956;8.636;2023-04-07T00:55:29;17.13;;;11.63;;
76098;SDS011;64828;49.956;8.636;2023-04-07T00:55:45;18.87;;;11.57;;
76098;SDS011;64828;49.956;8.636;2023-04-07T00:56:00;18.92;;;11.48;;
76098;SDS011;64828;49.956;8.636;2023-04-07T00:56:16;17.30;;;11.77;;
76098;SDS011;64828;49.956;8.636;2023-04-07T00:56:31;17.65;;;11.70;;
76098;SDS011;64828;49.956;8.636;2023-04-07T00:56:47;18.48;;;11.52;;
76098;SDS011;64828;49.956;8.636;2023-04-07T00:57:03;18.30;;;11.60;;
76098;SDS011;64828;49.956;8.636;2023-04-07T00:57:18;18.15;;;11.60;;
76098;SDS011;64828;49.956;8.636;2023-04-07T00:57:34;18.00;;;11.30;;
76098;SDS011;64828;49.956;8.636;2023-04-07T00:57:49;18.48;;;11.00;;
76098;SDS011;64828;49.956;8.636;2023-04-07T00:58:05;19.02;;;11.00;;
76098;SDS011;64828;49.956;8.636;2023-04-07T00:58:21;18.13;;;11.68;;
76098;SDS011;64828;49.956;8.636;2023-04-07T00:58:37;17.23;;;11.97;;
76098;SDS011;64828;49.956;8.636;2023-04-07T00:58:52;18.10;;;11.82;;
76098;SDS011;64828;49.956;8.636;2023-04-07T00:59:08;18.40;;;11.43;;
76098;SDS011;64828;49.956;8.636;2023-04-07T00:59:24;16.97;;;11.00;;
76098;SDS011;64828;49.956;8.636;2023-04-07T00:59:40;17.73;;;11.18;;
76098;SDS011;64828;49.956;8.636;2023-04-07T00:59:55;18.30;;;11.60;;
76098;SDS011;64828;49.956;8.636;2023-04-07T01:00:11;18.05;;;11.75;;
76098;SDS011;64828;49.956;8.636;2023-04-07T01:00:28;18.48;;;11.75;;
76098;SDS011;64828;49.956;8.636;2023-04-07T01:00:58;19.00;;;12.18;;
76098;SDS011;64828;49.956;8.636;2023-04-07T01:01:23;18.48;;;12.00;;
76098;SDS011;64828;49.956;8.636;2023-04-07T01:01:57;18.90;;;11.70;;
76098;SDS011;64828;49.956;8.636;2023-04-07T01:03:12;19.25;;;11.90;;
76098;SDS011;64828;49.956;8.636;2023-04-07T01:03:57;20.05;;;11.85;;
76098;SDS011;64828;49.956;8.636;2023-04-07T01:04:28;18.85;;;11.68;;
76098;SDS011;64828;49.956;8.636;2023-04-07T01:05:04;18.00;;;11.40;;
76098;SDS011;64828;49.956;8.636;2023-04-07T01:05:39;18.88;;;11.85;;
76098;SDS011;64828;49.956;8.636;2023-04-07T01:06:16;19.40;;;11.95;;
76098;SDS011;64828;49.956;8.636;2023-04-07T01:06:39;19.33;;;11.43;;
76098;SDS011;64828;49.956;8.636;2023-04-07T01:07:05;19.67;;;11.90;;
76098;SDS011;64828;49.956;8.636;2023-04-07T01:07:33;18.83;;;12.38;;
76098;SDS011;64828;49.956;8.636;2023-04-07T01:08:23;19.13;;;11.80;;
76098;SDS011;64828;49.956;8.636;2023-04-07T01:09:29;19.38;;;12.52;;
76098;SDS011;64828;49.956;8.636;2023-04-07T01:10:00;21.65;;;12.02;;
76098;SDS011;64828;49.956;8.636;2023-04-07T01:10:25;18.60;;;11.95;;
76098;SDS011;64828;49.956;8.636;2023-04-07T01:13:49;18.50;;;11.60;;
76098;SDS011;64828;49.956;8.636;2023-04-07T01:13:50;19.55;;;11.23;;
76098;SDS011;64828;49.956;8.636;2023-04-07T01:14:09;19.38;;;11.07;;
76098;SDS011;64828;49.956;8.636;2023-04-07T01:14:27;19.63;;;11.45;;
76098;SDS011;64828;49.956;8.636;2023-04-07T01:14:54;18.25;;;11.65;;
76098;SDS011;64828;49.956;8.636;2023-04-07T01:15:18;18.77;;;11.70;;
76098;SDS011;64828;49.956;8.636;2023-04-07T01:15:38;18.60;;;11.60;;
76098;SDS011;64828;49.956;8.636;2023-04-07T01:15:56;17.95;;;11.77;;
76098;SDS011;64828;49.956;8.636;2023-04-07T01:16:22;18.10;;;11.45;;
76098;SDS011;64828;49.956;8.636;2023-04-07T01:16:51;18.17;;;11.85;;
76098;SDS011;64828;49.956;8.636;2023-04-07T01:17:11;19.10;;;12.10;;
76098;SDS011;64828;49.956;8.636;2023-04-07T01:17:31;18.10;;;11.88;;
76098;SDS011;64828;49.956;8.636;2023-04-07T01:17:52;19.02;;;12.13;;
76098;SDS011;64828;49.956;8.636;2023-04-07T01:18:21;18.77;;;11.80;;
76098;SDS011;64828;49.956;8.636;2023-04-07T01:18:43;19.65;;;11.65;;
76098;SDS011;64828;49.956;8.636;2023-04-07T01:19:57;19.25;;;12.30;;
76098;SDS011;64828;49.956;8.636;2023-04-07T01:20:22;19.95;;;12.63;;
76098;SDS011;64828;49.956;8.636;2023-04-07T01:20:41;18.55;;;11.98;;
76098;SDS011;64828;49.956;8.636;2023-04-07T01:21:03;19.77;;;12.18;;
76098;SDS011;64828;49.956;8.636;2023-04-07T01:21:27;19.75;;;11.80;;
76098;SDS011;64828;49.956;8.636;2023-04-07T01:21:48;19.02;;;12.00;;
76098;SDS011;64828;49.956;8.636;2023-04-07T01:22:17;17.95;;;11.65;;
76098;SDS011;64828;49.956;8.636;2023-04-07T01:22:55;20.90;;;12.60;;
76098;SDS011;64828;49.956;8.636;2023-04-07T01:23:16;20.38;;;12.20;;
76098;SDS011;64828;49.956;8.636;2023-04-07T01:25:23;19.02;;;11.93;;
76098;SDS011;64828;49.956;8.636;2023-04-07T01:25:59;19.60;;;12.40;;
76098;SDS011;64828;49.956;8.636;2023-04-07T01:26:39;20.50;;;12.50;;
76098;SDS011;64828;49.956;8.636;2023-04-07T01:26:58;19.73;;;12.10;;
76098;SDS011;64828;49.956;8.636;2023-04-07T01:27:41;19.35;;;12.00;;
76098;SDS011;64828;49.956;8.636;2023-04-07T01:29:54;19.83;;;11.90;;
76098;SDS011;64828;49.956;8.636;2023-04-07T01:30:11;19.65;;;11.93;;
76098;SDS011;64828;49.956;8.636;2023-04-07T01:30:33;19.45;;;12.45;;
76098;SDS011;64828;49.956;8.636;2023-04-07T01:30:53;19.50;;;12.18;;
76098;SDS011;64828;49.956;8.636;2023-04-07T01:31:13;19.95;;;12.07;;
76098;SDS011;64828;49.956;8.636;2023-04-07T01:31:31;19.50;;;12.57;;
76098;SDS011;64828;49.956;8.636;2023-04-07T01:31:48;20.05;;;12.07;;
76098;SDS011;64828;49.956;8.636;2023-04-07T01:32:05;20.08;;;11.70;;
76098;SDS011;64828;49.956;8.636;2023-04-07T01:32:25;18.42;;;11.85;;
76098;SDS011;64828;49.956;8.636;2023-04-07T01:32:44;18.90;;;12.32;;
76098;SDS011;64828;49.956;8.636;2023-04-07T01:33:05;18.92;;;12.10;;
76098;SDS011;64828;49.956;8.636;2023-04-07T01:33:25;18.55;;;11.65;;
76098;SDS011;64828;49.956;8.636;2023-04-07T01:33:46;20.20;;;12.27;;
76098;SDS011;64828;49.956;8.636;2023-04-07T01:34:04;21.48;;;12.48;;
76098;SDS011;64828;49.956;8.636;2023-04-07T01:34:24;20.73;;;12.48;;
76098;SDS011;64828;49.956;8.636;2023-04-07T01:34:43;20.33;;;12.15;;
76098;SDS011;64828;49.956;8.636;2023-04-07T01:35:02;17.92;;;11.75;;
76098;SDS011;64828;49.956;8.636;2023-04-07T01:35:24;18.92;;;12.32;;
76098;SDS011;64828;49.956;8.636;2023-04-07T01:35:44;20.95;;;12.88;;
76098;SDS011;64828;49.956;8.636;2023-04-07T01:36:02;20.80;;;12.60;;
76098;SDS011;64828;49.956;8.636;2023-04-07T01:36:21;21.98;;;12.98;;
76098;SDS011;64828;49.956;8.636;2023-04-07T01:36:38;21.25;;;12.80;;
76098;SDS011;64828;49.956;8.636;2023-04-07T01:36:55;19.30;;;12.07;;
76098;SDS011;64828;49.956;8.636;2023-04-07T01:37:15;19.45;;;12.18;;
76098;SDS011;64828;49.956;8.636;2023-04-07T01:37:31;19.50;;;12.27;;
76098;SDS011;64828;49.956;8.636;2023-04-07T01:37:48;18.83;;;12.23;;
76098;SDS011;64828;49.956;8.636;2023-04-07T01:38:06;20.27;;;12.02;;
76098;SDS011;64828;49.956;8.636;2023-04-07T01:38:23;19.48;;;12.02;;
76098;SDS011;64828;49.956;8.636;2023-04-07T01:38:40;19.75;;;12.25;;
76098;SDS011;64828;49.956;8.636;2023-04-07T01:38:59;20.85;;;12.35;;
76098;SDS011;64828;49.956;8.636;2023-04-07T01:39:16;21.42;;;12.30;;
76098;SDS011;64828;49.956;8.636;2023-04-07T01:39:32;20.52;;;12.40;;
76098;SDS011;64828;49.956;8.636;2023-04-07T01:39:50;20.42;;;12.45;;
76098;SDS011;64828;49.956;8.636;2023-04-07T01:40:07;19.90;;;12.32;;
76098;SDS011;64828;49.956;8.636;2023-04-07T01:40:24;19.23;;;12.05;;
76098;SDS011;64828;49.956;8.636;2023-04-07T01:40:41;19.33;;;11.88;;
76098;SDS011;64828;49.956;8.636;2023-04-07T01:40:59;18.52;;;12.05;;
76098;SDS011;64828;49.956;8.636;2023-04-07T01:41:17;18.52;;;11.88;;
76098;SDS011;64828;49.956;8.636;2023-04-07T01:41:34;18.90;;;11.52;;
76098;SDS011;64828;49.956;8.636;2023-04-07T01:41:54;19.23;;;12.00;;
76098;SDS011;64828;49.956;8.636;2023-04-07T01:42:11;19.13;;;12.15;;
76098;SDS011;64828;49.956;8.636;2023-04-07T01:42:29;19.17;;;11.65;;
76098;SDS011;64828;49.956;8.636;2023-04-07T01:42:47;18.90;;;11.52;;
76098;SDS011;64828;49.956;8.636;2023-04-07T01:43:05;18.42;;;11.57;;
76098;SDS011;64828;49.956;8.636;2023-04-07T01:43:22;19.25;;;11.95;;
76098;SDS011;64828;49.956;8.636;2023-04-07T01:43:40;19.27;;;12.48;;
76098;SDS011;64828;49.956;8.636;2023-04-07T01:43:57;20.17;;;12.23;;
76098;SDS011;64828;49.956;8.636;2023-04-07T01:44:15;21.85;;;12.15;;
76098;SDS011;64828;49.956;8.636;2023-04-07T01:44:33;21.50;;;12.65;;
76098;SDS011;64828;49.956;8.636;2023-04-07T01:44:50;20.10;;;12.32;;
76098;SDS011;64828;49.956;8.636;2023-04-07T01:45:08;19.45;;;12.20;;
76098;SDS011;64828;49.956;8.636;2023-04-07T01:45:25;19.48;;;12.07;;
76098;SDS011;64828;49.956;8.636;2023-04-07T01:45:42;18.55;;;11.57;;
76098;SDS011;64828;49.956;8.636;2023-04-07T01:45:59;18.75;;;12.10;;
76098;SDS011;64828;49.956;8.636;2023-04-07T01:46:17;20.30;;;13.20;;
76098;SDS011;64828;49.956;8.636;2023-04-07T01:46:33;19.73;;;12.73;;
76098;SDS011;64828;49.956;8.636;2023-04-07T01:46:49;18.88;;;11.90;;
76098;SDS011;64828;49.956;8.636;2023-04-07T01:47:04;20.33;;;11.90;;
76098;SDS011;64828;49.956;8.636;2023-04-07T01:47:20;21.73;;;12.82;;
76098;SDS011;64828;49.956;8.636;2023-04-07T01:47:37;22.50;;;13.00;;
76098;SDS011;64828;49.956;8.636;2023-04-07T01:47:54;20.73;;;12.43;;
76098;SDS011;64828;49.956;8.636;2023-04-07T01:48:10;18.15;;;11.65;;
76098;SDS011;64828;49.956;8.636;2023-04-07T01:48:27;18.33;;;11.65;;
76098;SDS011;64828;49.956;8.636;2023-04-07T01:48:43;20.88;;;12.70;;
76098;SDS011;64828;49.956;8.636;2023-04-07T01:49:00;20.65;;;12.57;;
76098;SDS011;64828;49.956;8.636;2023-04-07T01:49:18;20.08;;;12.23;;
76098;SDS011;64828;49.956;8.636;2023-04-07T01:49:35;21.35;;;12.35;;
76098;SDS011;64828;49.956;8.636;2023-04-07T01:49:52;20.38;;;12.52;;
76098;SDS011;64828;49.956;8.636;2023-04-07T01:50:10;21.40;;;12.80;;
76098;SDS011;64828;49.956;8.636;2023-04-07T01:50:26;21.23;;;12.90;;
76098;SDS011;64828;49.956;8.636;2023-04-07T01:50:44;20.63;;;12.68;;
76098;SDS011;64828;49.956;8.636;2023-04-07T01:51:02;21.27;;;12.55;;
76098;SDS011;64828;49.956;8.636;2023-04-07T01:51:20;21.30;;;12.45;;
76098;SDS011;64828;49.956;8.636;2023-04-07T01:51:38;19.67;;;12.60;;
76098;SDS011;64828;49.956;8.636;2023-04-07T01:51:56;21.77;;;13.23;;
76098;SDS011;64828;49.956;8.636;2023-04-07T01:52:13;20.25;;;12.40;;
76098;SDS011;64828;49.956;8.636;2023-04-07T01:52:29;18.60;;;12.20;;